sensor_id;sensor_type;location;lat;lon;timestamp;P1;durP1;ratioP1;P2;durP2;ratioP2
65009;SDS011;51556;50.002;22.014;2022-08-18T00:04:09;18.70;;;9.80;;
65009;SDS011;51556;50.002;22.014;2022-08-18T00:06:35;13.20;;;9.90;;
65009;SDS011;51556;50.002;22.014;2022-08-18T00:09:03;19.80;;;9.80;;
65009;SDS011;51556;50.002;22.014;2022-08-18T00:11:31;13.30;;;9.30;;
65009;SDS011;51556;50.002;22.014;2022-08-18T00:13:59;14.60;;;9.40;;
65009;SDS011;51556;50.002;22.014;2022-08-18T00:16:24;12.50;;;8.70;;
65009;SDS011;51556;50.002;22.014;2022-08-18T00:18:50;16.70;;;10.30;;
65009;SDS011;51556;50.002;22.014;2022-08-18T00:21:16;14.80;;;10.40;;
65009;SDS011;51556;50.002;22.014;2022-08-18T00:23:43;15.70;;;9.80;;
65009;SDS011;51556;50.002;22.014;2022-08-18T00:26:08;14.50;;;9.60;;
65009;SDS011;51556;50.002;22.014;2022-08-18T00:28:34;16.00;;;10.40;;
65009;SDS011;51556;50.002;22.014;2022-08-18T00:31:00;17.30;;;10.20;;
65009;SDS011;51556;50.002;22.014;2022-08-18T00:33:26;16.30;;;11.10;;
65009;SDS011;51556;50.002;22.014;2022-08-18T00:35:51;17.20;;;10.30;;
65009;SDS011;51556;50.002;22.014;2022-08-18T00:38:17;16.00;;;10.20;;
65009;SDS011;51556;50.002;22.014;2022-08-18T00:40:44;13.80;;;9.90;;
65009;SDS011;51556;50.002;22.014;2022-08-18T00:43:17;14.20;;;9.60;;
65009;SDS011;51556;50.002;22.014;2022-08-18T00:45:47;13.90;;;9.80;;
65009;SDS011;51556;50.002;22.014;2022-08-18T00:48:13;14.10;;;9.70;;
65009;SDS011;51556;50.002;22.014;2022-08-18T00:50:50;14.00;;;9.40;;
65009;SDS011;51556;50.002;22.014;2022-08-18T00:53:23;14.20;;;10.10;;
65009;SDS011;51556;50.002;22.014;2022-08-18T00:56:02;16.00;;;10.40;;
65009;SDS011;51556;50.002;22.014;2022-08-18T00:58:36;11.80;;;9.80;;
65009;SDS011;51556;50.002;22.014;2022-08-18T01:01:22;13.90;;;9.90;;
65009;SDS011;51556;50.002;22.014;2022-08-18T01:03:51;10.80;;;9.10;;
65009;SDS011;51556;50.002;22.014;2022-08-18T01:06:25;15.50;;;9.50;;
65009;SDS011;51556;50.002;22.014;2022-08-18T01:08:52;17.00;;;10.00;;
65009;SDS011;51556;50.002;22.014;2022-08-18T01:11:20;11.20;;;10.00;;
65009;SDS011;51556;50.002;22.014;2022-08-18T01:13:45;13.60;;;10.10;;
65009;SDS011;51556;50.002;22.014;2022-08-18T01:16:11;13.50;;;9.90;;
65009;SDS011;51556;50.002;22.014;2022-08-18T01:18:55;13.30;;;9.50;;
65009;SDS011;51556;50.002;22.014;2022-08-18T01:21:41;14.20;;;9.70;;
65009;SDS011;51556;50.002;22.014;2022-08-18T01:24:22;12.50;;;9.00;;
65009;SDS011;51556;50.002;22.014;2022-08-18T01:27:12;18.20;;;10.00;;
65009;SDS011;51556;50.002;22.014;2022-08-18T01:29:43;12.50;;;9.90;;
65009;SDS011;51556;50.002;22.014;2022-08-18T01:32:10;12.50;;;9.50;;
65009;SDS011;51556;50.002;22.014;2022-08-18T01:34:38;12.30;;;10.40;;
65009;SDS011;51556;50.002;22.014;2022-08-18T01:37:04;12.30;;;10.00;;
65009;SDS011;51556;50.002;22.014;2022-08-18T01:39:30;12.30;;;9.80;;
65009;SDS011;51556;50.002;22.014;2022-08-18T01:41:56;14.10;;;10.30;;
65009;SDS011;51556;50.002;22.014;2022-08-18T01:44:21;11.80;;;10.00;;
65009;SDS011;51556;50.002;22.014;2022-08-18T01:46:47;12.10;;;9.90;;
65009;SDS011;51556;50.002;22.014;2022-08-18T01:49:12;13.10;;;10.10;;
65009;SDS011;51556;50.002;22.014;2022-08-18T01:51:38;12.80;;;9.50;;
65009;SDS011;51556;50.002;22.014;2022-08-18T01:54:10;12.60;;;9.80;;
65009;SDS011;51556;50.002;22.014;2022-08-18T01:56:37;15.00;;;9.70;;
65009;SDS011;51556;50.002;22.014;2022-08-18T01:59:04;11.90;;;10.00;;
65009;SDS011;51556;50.002;22.014;2022-08-18T02:01:36;14.20;;;11.10;;
65009;SDS011;51556;50.002;22.014;2022-08-18T02:04:03;13.20;;;10.20;;
65009;SDS011;51556;50.002;22.014;2022-08-18T02:06:31;13.90;;;10.40;;
65009;SDS011;51556;50.002;22.014;2022-08-18T02:08:57;11.70;;;10.20;;
65009;SDS011;51556;50.002;22.014;2022-08-18T02:11:23;13.30;;;9.60;;
65009;SDS011;51556;50.002;22.014;2022-08-18T02:13:48;11.20;;;9.60;;
65009;SDS011;51556;50.002;22.014;2022-08-18T02:16:14;13.30;;;10.00;;
65009;SDS011;51556;50.002;22.014;2022-08-18T02:18:41;12.60;;;9.60;;
65009;SDS011;51556;50.002;22.014;2022-08-18T02:21:08;13.00;;;9.70;;
65009;SDS011;51556;50.002;22.014;2022-08-18T02:23:35;12.20;;;9.70;;
65009;SDS011;51556;50.002;22.014;2022-08-18T02:26:06;14.20;;;10.10;;
65009;SDS011;51556;50.002;22.014;2022-08-18T02:28:33;10.80;;;9.00;;
65009;SDS011;51556;50.002;22.014;2022-08-18T02:31:02;12.70;;;10.00;;
65009;SDS011;51556;50.002;22.014;2022-08-18T02:33:33;11.00;;;8.60;;
65009;SDS011;51556;50.002;22.014;2022-08-18T02:35:59;11.90;;;9.30;;
65009;SDS011;51556;50.002;22.014;2022-08-18T02:38:25;10.40;;;9.20;;
65009;SDS011;51556;50.002;22.014;2022-08-18T02:40:54;10.00;;;8.50;;
65009;SDS011;51556;50.002;22.014;2022-08-18T02:43:26;10.20;;;9.20;;
65009;SDS011;51556;50.002;22.014;2022-08-18T02:45:53;13.40;;;9.30;;
65009;SDS011;51556;50.002;22.014;2022-08-18T02:48:19;10.10;;;8.90;;
65009;SDS011;51556;50.002;22.014;2022-08-18T02:50:59;10.30;;;8.10;;
65009;SDS011;51556;50.002;22.014;2022-08-18T02:53:39;10.90;;;8.20;;
65009;SDS011;51556;50.002;22.014;2022-08-18T02:56:07;9.00;;;8.00;;
65009;SDS011;51556;50.002;22.014;2022-08-18T02:58:46;9.00;;;7.60;;
65009;SDS011;51556;50.002;22.014;2022-08-18T03:01:12;8.80;;;7.70;;
65009;SDS011;51556;50.002;22.014;2022-08-18T03:03:38;9.10;;;7.60;;
65009;SDS011;51556;50.002;22.014;2022-08-18T03:06:04;9.70;;;8.20;;
65009;SDS011;51556;50.002;22.014;2022-08-18T03:08:30;8.80;;;7.90;;
65009;SDS011;51556;50.002;22.014;2022-08-18T03:10:56;9.30;;;8.30;;
65009;SDS011;51556;50.002;22.014;2022-08-18T03:13:22;10.10;;;9.00;;
65009;SDS011;51556;50.002;22.014;2022-08-18T03:15:48;9.30;;;8.40;;
65009;SDS011;51556;50.002;22.014;2022-08-18T03:18:14;9.20;;;8.30;;
65009;SDS011;51556;50.002;22.014;2022-08-18T03:20:41;9.50;;;8.20;;
65009;SDS011;51556;50.002;22.014;2022-08-18T03:23:10;11.40;;;8.10;;
65009;SDS011;51556;50.002;22.014;2022-08-18T03:25:46;9.20;;;7.90;;
65009;SDS011;51556;50.002;22.014;2022-08-18T03:28:13;10.50;;;7.70;;
65009;SDS011;51556;50.002;22.014;2022-08-18T03:30:40;8.90;;;6.80;;
65009;SDS011;51556;50.002;22.014;2022-08-18T03:33:07;9.30;;;7.10;;
65009;SDS011;51556;50.002;22.014;2022-08-18T03:35:35;7.30;;;6.60;;
65009;SDS011;51556;50.002;22.014;2022-08-18T03:38:01;7.10;;;6.40;;
65009;SDS011;51556;50.002;22.014;2022-08-18T03:40:28;8.00;;;6.40;;
65009;SDS011;51556;50.002;22.014;2022-08-18T03:42:53;7.10;;;6.40;;
65009;SDS011;51556;50.002;22.014;2022-08-18T03:45:19;7.90;;;7.10;;
65009;SDS011;51556;50.002;22.014;2022-08-18T03:47:47;8.20;;;7.20;;
65009;SDS011;51556;50.002;22.014;2022-08-18T03:50:16;8.80;;;6.90;;
65009;SDS011;51556;50.002;22.014;2022-08-18T03:52:44;8.50;;;7.00;;
65009;SDS011;51556;50.002;22.014;2022-08-18T03:55:14;8.40;;;7.50;;
65009;SDS011;51556;50.002;22.014;2022-08-18T03:57:41;7.90;;;7.10;;
65009;SDS011;51556;50.002;22.014;2022-08-18T04:00:07;9.20;;;7.20;;
65009;SDS011;51556;50.002;22.014;2022-08-18T04:02:35;9.10;;;7.50;;
65009;SDS011;51556;50.002;22.014;2022-08-18T04:05:00;8.00;;;7.00;;
65009;SDS011;51556;50.002;22.014;2022-08-18T04:07:27;7.00;;;6.20;;
65009;SDS011;51556;50.002;22.014;2022-08-18T04:09:53;7.40;;;6.70;;
65009;SDS011;51556;50.002;22.014;2022-08-18T04:12:18;7.20;;;6.40;;
65009;SDS011;51556;50.002;22.014;2022-08-18T04:14:45;7.30;;;6.60;;
65009;SDS011;51556;50.002;22.014;2022-08-18T04:17:12;7.80;;;6.80;;
65009;SDS011;51556;50.002;22.014;2022-08-18T04:19:38;7.10;;;6.20;;
65009;SDS011;51556;50.002;22.014;2022-08-18T04:22:04;9.70;;;7.20;;
65009;SDS011;51556;50.002;22.014;2022-08-18T04:24:30;8.20;;;6.60;;
65009;SDS011;51556;50.002;22.014;2022-08-18T04:26:58;6.70;;;6.00;;
65009;SDS011;51556;50.002;22.014;2022-08-18T04:29:25;6.90;;;6.20;;
65009;SDS011;51556;50.002;22.014;2022-08-18T04:31:52;9.60;;;6.80;;
65009;SDS011;51556;50.002;22.014;2022-08-18T04:34:19;7.10;;;6.40;;
65009;SDS011;51556;50.002;22.014;2022-08-18T04:36:46;7.40;;;6.30;;
65009;SDS011;51556;50.002;22.014;2022-08-18T04:39:13;7.50;;;6.30;;
65009;SDS011;51556;50.002;22.014;2022-08-18T04:41:41;7.70;;;6.90;;
65009;SDS011;51556;50.002;22.014;2022-08-18T04:44:08;7.20;;;6.50;;
65009;SDS011;51556;50.002;22.014;2022-08-18T04:46:36;7.30;;;6.60;;
65009;SDS011;51556;50.002;22.014;2022-08-18T04:49:04;7.00;;;6.40;;
65009;SDS011;51556;50.002;22.014;2022-08-18T04:51:30;7.70;;;6.40;;
65009;SDS011;51556;50.002;22.014;2022-08-18T04:53:57;7.50;;;6.70;;
65009;SDS011;51556;50.002;22.014;2022-08-18T04:56:26;8.50;;;7.20;;
65009;SDS011;51556;50.002;22.014;2022-08-18T04:58:55;9.40;;;7.10;;
65009;SDS011;51556;50.002;22.014;2022-08-18T05:01:27;8.40;;;7.60;;
65009;SDS011;51556;50.002;22.014;2022-08-18T05:03:55;7.80;;;6.50;;
65009;SDS011;51556;50.002;22.014;2022-08-18T05:06:23;9.80;;;7.10;;
65009;SDS011;51556;50.002;22.014;2022-08-18T05:08:52;9.30;;;7.10;;
65009;SDS011;51556;50.002;22.014;2022-08-18T05:11:19;8.10;;;7.30;;
65009;SDS011;51556;50.002;22.014;2022-08-18T05:13:47;9.30;;;7.30;;
65009;SDS011;51556;50.002;22.014;2022-08-18T05:16:13;9.80;;;7.90;;
65009;SDS011;51556;50.002;22.014;2022-08-18T05:18:40;8.20;;;7.40;;
65009;SDS011;51556;50.002;22.014;2022-08-18T05:21:06;10.40;;;7.60;;
65009;SDS011;51556;50.002;22.014;2022-08-18T05:23:39;8.30;;;7.50;;
65009;SDS011;51556;50.002;22.014;2022-08-18T05:26:08;9.10;;;7.50;;
65009;SDS011;51556;50.002;22.014;2022-08-18T05:28:34;8.40;;;7.40;;
65009;SDS011;51556;50.002;22.014;2022-08-18T05:31:08;9.70;;;7.60;;
65009;SDS011;51556;50.002;22.014;2022-08-18T05:33:39;11.30;;;8.00;;
65009;SDS011;51556;50.002;22.014;2022-08-18T05:36:08;11.00;;;7.50;;
65009;SDS011;51556;50.002;22.014;2022-08-18T05:38:54;9.20;;;7.20;;
65009;SDS011;51556;50.002;22.014;2022-08-18T05:41:32;9.60;;;7.30;;
65009;SDS011;51556;50.002;22.014;2022-08-18T05:44:02;10.00;;;7.70;;
65009;SDS011;51556;50.002;22.014;2022-08-18T05:46:49;8.80;;;7.60;;
65009;SDS011;51556;50.002;22.014;2022-08-18T05:49:20;9.70;;;7.10;;
65009;SDS011;51556;50.002;22.014;2022-08-18T05:51:50;9.70;;;7.30;;
65009;SDS011;51556;50.002;22.014;2022-08-18T05:54:20;8.40;;;7.50;;
65009;SDS011;51556;50.002;22.014;2022-08-18T05:57:10;8.60;;;7.20;;
65009;SDS011;51556;50.002;22.014;2022-08-18T05:59:40;11.90;;;7.30;;
65009;SDS011;51556;50.002;22.014;2022-08-18T06:02:12;11.10;;;7.40;;
65009;SDS011;51556;50.002;22.014;2022-08-18T06:04:49;8.90;;;6.50;;
65009;SDS011;51556;50.002;22.014;2022-08-18T06:10:05;7.00;;;6.30;;
65009;SDS011;51556;50.002;22.014;2022-08-18T06:12:34;8.60;;;6.10;;
65009;SDS011;51556;50.002;22.014;2022-08-18T06:17:55;6.20;;;5.50;;
65009;SDS011;51556;50.002;22.014;2022-08-18T06:23:31;8.00;;;5.60;;
65009;SDS011;51556;50.002;22.014;2022-08-18T06:39:45;7.70;;;5.70;;
65009;SDS011;51556;50.002;22.014;2022-08-18T06:42:21;9.00;;;6.40;;
65009;SDS011;51556;50.002;22.014;2022-08-18T06:44:52;8.00;;;6.20;;
65009;SDS011;51556;50.002;22.014;2022-08-18T06:50:08;7.60;;;6.80;;
65009;SDS011;51556;50.002;22.014;2022-08-18T06:52:38;8.70;;;5.70;;
65009;SDS011;51556;50.002;22.014;2022-08-18T06:55:16;7.90;;;6.80;;
65009;SDS011;51556;50.002;22.014;2022-08-18T06:57:56;7.80;;;6.70;;
65009;SDS011;51556;50.002;22.014;2022-08-18T07:00:25;13.00;;;7.10;;
65009;SDS011;51556;50.002;22.014;2022-08-18T07:03:00;11.70;;;6.70;;
65009;SDS011;51556;50.002;22.014;2022-08-18T07:08:41;13.00;;;7.00;;
65009;SDS011;51556;50.002;22.014;2022-08-18T07:13:46;9.70;;;6.50;;
65009;SDS011;51556;50.002;22.014;2022-08-18T07:16:16;9.20;;;6.90;;
65009;SDS011;51556;50.002;22.014;2022-08-18T07:19:06;11.10;;;6.80;;
65009;SDS011;51556;50.002;22.014;2022-08-18T07:21:33;9.00;;;6.50;;
65009;SDS011;51556;50.002;22.014;2022-08-18T07:29:27;10.00;;;6.90;;
65009;SDS011;51556;50.002;22.014;2022-08-18T07:31:54;7.60;;;5.80;;
65009;SDS011;51556;50.002;22.014;2022-08-18T07:34:26;10.00;;;7.60;;
65009;SDS011;51556;50.002;22.014;2022-08-18T07:37:06;6.70;;;6.00;;
65009;SDS011;51556;50.002;22.014;2022-08-18T07:39:46;10.60;;;6.30;;
65009;SDS011;51556;50.002;22.014;2022-08-18T07:42:36;8.90;;;6.00;;
65009;SDS011;51556;50.002;22.014;2022-08-18T07:45:30;9.60;;;6.30;;
65009;SDS011;51556;50.002;22.014;2022-08-18T07:48:09;9.00;;;6.40;;
65009;SDS011;51556;50.002;22.014;2022-08-18T07:51:09;9.20;;;6.00;;
65009;SDS011;51556;50.002;22.014;2022-08-18T07:53:58;8.30;;;5.90;;
65009;SDS011;51556;50.002;22.014;2022-08-18T07:59:02;7.70;;;5.80;;
65009;SDS011;51556;50.002;22.014;2022-08-18T08:01:49;8.00;;;6.30;;
65009;SDS011;51556;50.002;22.014;2022-08-18T08:07:09;7.60;;;5.60;;
65009;SDS011;51556;50.002;22.014;2022-08-18T08:09:56;12.40;;;5.90;;
65009;SDS011;51556;50.002;22.014;2022-08-18T08:20:55;8.30;;;6.00;;
65009;SDS011;51556;50.002;22.014;2022-08-18T08:23:29;7.90;;;6.20;;
65009;SDS011;51556;50.002;22.014;2022-08-18T08:28:57;7.90;;;5.90;;
65009;SDS011;51556;50.002;22.014;2022-08-18T08:34:23;9.00;;;6.20;;
65009;SDS011;51556;50.002;22.014;2022-08-18T08:37:00;7.50;;;6.10;;
65009;SDS011;51556;50.002;22.014;2022-08-18T08:42:03;8.40;;;6.20;;
65009;SDS011;51556;50.002;22.014;2022-08-18T08:44:38;9.80;;;6.10;;
65009;SDS011;51556;50.002;22.014;2022-08-18T08:47:21;7.60;;;5.50;;
65009;SDS011;51556;50.002;22.014;2022-08-18T08:49:55;9.40;;;5.90;;
65009;SDS011;51556;50.002;22.014;2022-08-18T08:52:28;6.10;;;5.50;;
65009;SDS011;51556;50.002;22.014;2022-08-18T08:55:24;9.90;;;6.00;;
65009;SDS011;51556;50.002;22.014;2022-08-18T09:00:40;7.20;;;5.20;;
65009;SDS011;51556;50.002;22.014;2022-08-18T09:06:29;7.80;;;5.70;;
65009;SDS011;51556;50.002;22.014;2022-08-18T09:09:16;7.90;;;6.00;;
65009;SDS011;51556;50.002;22.014;2022-08-18T09:14:17;8.30;;;6.00;;
65009;SDS011;51556;50.002;22.014;2022-08-18T09:17:00;7.60;;;5.80;;
65009;SDS011;51556;50.002;22.014;2022-08-18T09:39:04;8.20;;;5.60;;
65009;SDS011;51556;50.002;22.014;2022-08-18T09:42:13;7.80;;;5.50;;
65009;SDS011;51556;50.002;22.014;2022-08-18T09:49:52;6.90;;;6.00;;
65009;SDS011;51556;50.002;22.014;2022-08-18T09:54:49;11.00;;;5.70;;
65009;SDS011;51556;50.002;22.014;2022-08-18T09:59:56;6.20;;;5.10;;
65009;SDS011;51556;50.002;22.014;2022-08-18T10:07:41;7.50;;;5.60;;
65009;SDS011;51556;50.002;22.014;2022-08-18T10:21:22;7.30;;;5.30;;
65009;SDS011;51556;50.002;22.014;2022-08-18T10:31:28;7.20;;;5.40;;
65009;SDS011;51556;50.002;22.014;2022-08-18T10:34:03;12.00;;;4.90;;
65009;SDS011;51556;50.002;22.014;2022-08-18T10:36:37;8.10;;;4.90;;
65009;SDS011;51556;50.002;22.014;2022-08-18T10:39:04;7.50;;;4.80;;
65009;SDS011;51556;50.002;22.014;2022-08-18T10:41:34;7.50;;;4.70;;
65009;SDS011;51556;50.002;22.014;2022-08-18T10:44:02;6.50;;;4.90;;
65009;SDS011;51556;50.002;22.014;2022-08-18T10:46:32;9.10;;;4.60;;
65009;SDS011;51556;50.002;22.014;2022-08-18T10:49:06;5.50;;;4.40;;
65009;SDS011;51556;50.002;22.014;2022-08-18T10:57:15;6.00;;;4.30;;
65009;SDS011;51556;50.002;22.014;2022-08-18T11:00:22;8.40;;;4.90;;
65009;SDS011;51556;50.002;22.014;2022-08-18T11:05:35;8.00;;;4.90;;
65009;SDS011;51556;50.002;22.014;2022-08-18T11:08:02;6.80;;;4.60;;
65009;SDS011;51556;50.002;22.014;2022-08-18T11:10:35;5.40;;;4.50;;
65009;SDS011;51556;50.002;22.014;2022-08-18T11:13:28;8.20;;;5.10;;
65009;SDS011;51556;50.002;22.014;2022-08-18T11:18:47;5.50;;;4.10;;
65009;SDS011;51556;50.002;22.014;2022-08-18T11:26:35;6.70;;;4.40;;
65009;SDS011;51556;50.002;22.014;2022-08-18T11:31:45;9.00;;;4.60;;
65009;SDS011;51556;50.002;22.014;2022-08-18T11:34:14;6.00;;;4.40;;
65009;SDS011;51556;50.002;22.014;2022-08-18T11:36:42;6.00;;;4.70;;
65009;SDS011;51556;50.002;22.014;2022-08-18T11:39:09;6.30;;;4.70;;
65009;SDS011;51556;50.002;22.014;2022-08-18T11:41:36;6.50;;;5.30;;
65009;SDS011;51556;50.002;22.014;2022-08-18T11:44:03;8.00;;;4.50;;
65009;SDS011;51556;50.002;22.014;2022-08-18T11:46:38;8.90;;;4.60;;
65009;SDS011;51556;50.002;22.014;2022-08-18T11:49:15;7.40;;;4.80;;
65009;SDS011;51556;50.002;22.014;2022-08-18T11:51:56;7.90;;;4.50;;
65009;SDS011;51556;50.002;22.014;2022-08-18T11:54:32;5.80;;;4.50;;
65009;SDS011;51556;50.002;22.014;2022-08-18T12:08:56;6.30;;;4.80;;
65009;SDS011;51556;50.002;22.014;2022-08-18T12:11:27;7.40;;;4.50;;
65009;SDS011;51556;50.002;22.014;2022-08-18T12:13:58;6.20;;;4.40;;
65009;SDS011;51556;50.002;22.014;2022-08-18T12:19:00;6.30;;;4.60;;
65009;SDS011;51556;50.002;22.014;2022-08-18T12:21:26;6.20;;;4.10;;
65009;SDS011;51556;50.002;22.014;2022-08-18T12:23:51;8.60;;;4.50;;
65009;SDS011;51556;50.002;22.014;2022-08-18T12:26:17;7.00;;;4.50;;
65009;SDS011;51556;50.002;22.014;2022-08-18T12:28:44;7.80;;;4.70;;
65009;SDS011;51556;50.002;22.014;2022-08-18T12:31:10;6.20;;;4.20;;
65009;SDS011;51556;50.002;22.014;2022-08-18T12:33:35;5.70;;;4.60;;
65009;SDS011;51556;50.002;22.014;2022-08-18T12:36:02;7.00;;;4.70;;
65009;SDS011;51556;50.002;22.014;2022-08-18T12:38:28;7.40;;;4.60;;
65009;SDS011;51556;50.002;22.014;2022-08-18T12:40:55;6.70;;;4.30;;
65009;SDS011;51556;50.002;22.014;2022-08-18T12:43:21;6.80;;;4.40;;
65009;SDS011;51556;50.002;22.014;2022-08-18T12:45:46;6.80;;;4.30;;
65009;SDS011;51556;50.002;22.014;2022-08-18T12:48:12;6.80;;;4.40;;
65009;SDS011;51556;50.002;22.014;2022-08-18T12:50:38;5.00;;;4.50;;
65009;SDS011;51556;50.002;22.014;2022-08-18T12:53:04;6.00;;;4.40;;
65009;SDS011;51556;50.002;22.014;2022-08-18T12:55:32;4.10;;;3.60;;
65009;SDS011;51556;50.002;22.014;2022-08-18T12:58:00;5.90;;;4.30;;
65009;SDS011;51556;50.002;22.014;2022-08-18T13:00:28;6.40;;;4.60;;
65009;SDS011;51556;50.002;22.014;2022-08-18T13:02:54;5.00;;;4.10;;
65009;SDS011;51556;50.002;22.014;2022-08-18T13:05:19;5.80;;;4.70;;
65009;SDS011;51556;50.002;22.014;2022-08-18T13:07:45;6.40;;;4.40;;
65009;SDS011;51556;50.002;22.014;2022-08-18T13:10:11;9.00;;;4.90;;
65009;SDS011;51556;50.002;22.014;2022-08-18T13:12:36;5.30;;;4.10;;
65009;SDS011;51556;50.002;22.014;2022-08-18T13:15:02;8.20;;;4.40;;
65009;SDS011;51556;50.002;22.014;2022-08-18T13:17:30;7.40;;;4.40;;
65009;SDS011;51556;50.002;22.014;2022-08-18T13:19:56;9.80;;;4.50;;
65009;SDS011;51556;50.002;22.014;2022-08-18T13:22:22;4.20;;;3.30;;
65009;SDS011;51556;50.002;22.014;2022-08-18T13:24:48;4.20;;;3.60;;
65009;SDS011;51556;50.002;22.014;2022-08-18T13:27:15;6.30;;;4.30;;
65009;SDS011;51556;50.002;22.014;2022-08-18T13:29:44;6.10;;;4.90;;
65009;SDS011;51556;50.002;22.014;2022-08-18T13:32:09;7.80;;;4.50;;
65009;SDS011;51556;50.002;22.014;2022-08-18T13:34:35;9.60;;;4.70;;
65009;SDS011;51556;50.002;22.014;2022-08-18T13:37:00;5.10;;;4.40;;
65009;SDS011;51556;50.002;22.014;2022-08-18T13:39:26;4.60;;;4.10;;
65009;SDS011;51556;50.002;22.014;2022-08-18T13:41:53;9.40;;;4.50;;
65009;SDS011;51556;50.002;22.014;2022-08-18T13:44:19;7.40;;;4.00;;
65009;SDS011;51556;50.002;22.014;2022-08-18T13:46:47;5.60;;;4.20;;
65009;SDS011;51556;50.002;22.014;2022-08-18T13:49:14;5.40;;;4.20;;
65009;SDS011;51556;50.002;22.014;2022-08-18T13:51:41;6.80;;;4.30;;
65009;SDS011;51556;50.002;22.014;2022-08-18T13:54:08;7.70;;;4.10;;
65009;SDS011;51556;50.002;22.014;2022-08-18T13:56:38;7.50;;;4.20;;
65009;SDS011;51556;50.002;22.014;2022-08-18T13:59:03;7.30;;;4.40;;
65009;SDS011;51556;50.002;22.014;2022-08-18T14:01:29;5.90;;;3.90;;
65009;SDS011;51556;50.002;22.014;2022-08-18T14:03:56;8.70;;;4.20;;
65009;SDS011;51556;50.002;22.014;2022-08-18T14:06:21;7.10;;;4.20;;
65009;SDS011;51556;50.002;22.014;2022-08-18T14:08:48;5.50;;;4.50;;
65009;SDS011;51556;50.002;22.014;2022-08-18T14:11:14;8.50;;;5.30;;
65009;SDS011;51556;50.002;22.014;2022-08-18T14:13:40;6.80;;;4.60;;
65009;SDS011;51556;50.002;22.014;2022-08-18T14:16:05;5.30;;;4.30;;
65009;SDS011;51556;50.002;22.014;2022-08-18T14:18:32;6.80;;;4.30;;
65009;SDS011;51556;50.002;22.014;2022-08-18T14:20:57;7.70;;;4.70;;
65009;SDS011;51556;50.002;22.014;2022-08-18T14:23:42;5.70;;;5.00;;
65009;SDS011;51556;50.002;22.014;2022-08-18T14:26:10;8.40;;;5.20;;
65009;SDS011;51556;50.002;22.014;2022-08-18T14:28:54;10.10;;;5.40;;
65009;SDS011;51556;50.002;22.014;2022-08-18T14:31:20;5.70;;;5.10;;
65009;SDS011;51556;50.002;22.014;2022-08-18T14:33:46;8.50;;;5.30;;
65009;SDS011;51556;50.002;22.014;2022-08-18T14:36:13;7.80;;;5.10;;
65009;SDS011;51556;50.002;22.014;2022-08-18T14:38:40;6.70;;;4.80;;
65009;SDS011;51556;50.002;22.014;2022-08-18T14:41:07;6.40;;;4.90;;
65009;SDS011;51556;50.002;22.014;2022-08-18T14:43:35;5.50;;;4.40;;
65009;SDS011;51556;50.002;22.014;2022-08-18T14:46:04;7.10;;;5.10;;
65009;SDS011;51556;50.002;22.014;2022-08-18T14:48:31;5.80;;;4.80;;
65009;SDS011;51556;50.002;22.014;2022-08-18T14:50:57;7.30;;;4.60;;
65009;SDS011;51556;50.002;22.014;2022-08-18T14:53:26;6.40;;;4.60;;
65009;SDS011;51556;50.002;22.014;2022-08-18T14:55:54;5.40;;;4.80;;
65009;SDS011;51556;50.002;22.014;2022-08-18T14:58:29;5.60;;;4.80;;
65009;SDS011;51556;50.002;22.014;2022-08-18T15:01:05;10.80;;;4.90;;
65009;SDS011;51556;50.002;22.014;2022-08-18T15:03:33;8.70;;;5.10;;
65009;SDS011;51556;50.002;22.014;2022-08-18T15:06:01;7.00;;;4.90;;
65009;SDS011;51556;50.002;22.014;2022-08-18T15:08:27;5.70;;;4.60;;
65009;SDS011;51556;50.002;22.014;2022-08-18T15:10:53;6.80;;;4.40;;
65009;SDS011;51556;50.002;22.014;2022-08-18T15:13:21;6.90;;;5.00;;
65009;SDS011;51556;50.002;22.014;2022-08-18T15:15:48;7.10;;;4.80;;
65009;SDS011;51556;50.002;22.014;2022-08-18T15:18:14;5.00;;;4.50;;
65009;SDS011;51556;50.002;22.014;2022-08-18T15:20:40;6.20;;;4.70;;
65009;SDS011;51556;50.002;22.014;2022-08-18T15:23:24;6.50;;;5.20;;
65009;SDS011;51556;50.002;22.014;2022-08-18T15:26:10;6.50;;;4.60;;
65009;SDS011;51556;50.002;22.014;2022-08-18T15:28:36;8.40;;;5.20;;
65009;SDS011;51556;50.002;22.014;2022-08-18T15:31:03;8.30;;;5.00;;
65009;SDS011;51556;50.002;22.014;2022-08-18T15:33:29;6.90;;;5.10;;
65009;SDS011;51556;50.002;22.014;2022-08-18T15:35:56;6.30;;;4.90;;
65009;SDS011;51556;50.002;22.014;2022-08-18T15:38:22;5.00;;;4.50;;
65009;SDS011;51556;50.002;22.014;2022-08-18T15:43:16;7.50;;;5.60;;
65009;SDS011;51556;50.002;22.014;2022-08-18T15:45:45;6.10;;;4.90;;
65009;SDS011;51556;50.002;22.014;2022-08-18T15:48:13;7.60;;;5.40;;
65009;SDS011;51556;50.002;22.014;2022-08-18T15:50:40;7.50;;;5.20;;
65009;SDS011;51556;50.002;22.014;2022-08-18T15:53:08;7.50;;;5.00;;
65009;SDS011;51556;50.002;22.014;2022-08-18T15:55:36;6.50;;;5.10;;
65009;SDS011;51556;50.002;22.014;2022-08-18T15:58:04;6.30;;;4.70;;
65009;SDS011;51556;50.002;22.014;2022-08-18T16:00:30;6.40;;;5.00;;
65009;SDS011;51556;50.002;22.014;2022-08-18T16:02:58;7.90;;;5.00;;
65009;SDS011;51556;50.002;22.014;2022-08-18T16:05:29;7.60;;;4.60;;
65009;SDS011;51556;50.002;22.014;2022-08-18T16:07:58;7.40;;;5.30;;
65009;SDS011;51556;50.002;22.014;2022-08-18T16:10:26;7.40;;;5.10;;
65009;SDS011;51556;50.002;22.014;2022-08-18T16:12:53;8.20;;;5.40;;
65009;SDS011;51556;50.002;22.014;2022-08-18T16:15:20;6.60;;;5.20;;
65009;SDS011;51556;50.002;22.014;2022-08-18T16:17:49;5.00;;;4.40;;
65009;SDS011;51556;50.002;22.014;2022-08-18T16:20:16;8.90;;;5.30;;
65009;SDS011;51556;50.002;22.014;2022-08-18T16:22:43;7.60;;;5.10;;
65009;SDS011;51556;50.002;22.014;2022-08-18T16:25:09;7.90;;;5.10;;
65009;SDS011;51556;50.002;22.014;2022-08-18T16:27:36;7.00;;;4.90;;
65009;SDS011;51556;50.002;22.014;2022-08-18T16:30:10;9.60;;;5.40;;
65009;SDS011;51556;50.002;22.014;2022-08-18T16:32:38;8.10;;;5.00;;
65009;SDS011;51556;50.002;22.014;2022-08-18T16:35:05;9.60;;;5.90;;
65009;SDS011;51556;50.002;22.014;2022-08-18T16:37:31;8.50;;;5.10;;
65009;SDS011;51556;50.002;22.014;2022-08-18T16:39:57;8.80;;;5.50;;
65009;SDS011;51556;50.002;22.014;2022-08-18T16:42:22;5.80;;;5.00;;
65009;SDS011;51556;50.002;22.014;2022-08-18T16:44:48;5.90;;;5.00;;
65009;SDS011;51556;50.002;22.014;2022-08-18T16:47:14;10.60;;;5.10;;
65009;SDS011;51556;50.002;22.014;2022-08-18T16:49:44;8.50;;;5.60;;
65009;SDS011;51556;50.002;22.014;2022-08-18T16:52:12;8.20;;;6.00;;
65009;SDS011;51556;50.002;22.014;2022-08-18T16:54:40;7.20;;;5.10;;
65009;SDS011;51556;50.002;22.014;2022-08-18T16:57:06;10.20;;;6.70;;
65009;SDS011;51556;50.002;22.014;2022-08-18T16:59:32;11.10;;;5.70;;
65009;SDS011;51556;50.002;22.014;2022-08-18T17:02:17;6.60;;;5.50;;
65009;SDS011;51556;50.002;22.014;2022-08-18T17:05:02;7.10;;;5.80;;
65009;SDS011;51556;50.002;22.014;2022-08-18T17:07:28;6.80;;;5.80;;
65009;SDS011;51556;50.002;22.014;2022-08-18T17:09:55;9.80;;;5.50;;
65009;SDS011;51556;50.002;22.014;2022-08-18T17:12:22;12.00;;;5.40;;
65009;SDS011;51556;50.002;22.014;2022-08-18T17:14:50;9.40;;;5.70;;
65009;SDS011;51556;50.002;22.014;2022-08-18T17:17:16;8.30;;;5.60;;
65009;SDS011;51556;50.002;22.014;2022-08-18T17:19:43;8.20;;;5.80;;
65009;SDS011;51556;50.002;22.014;2022-08-18T17:22:10;7.10;;;5.60;;
65009;SDS011;51556;50.002;22.014;2022-08-18T17:24:36;9.50;;;5.90;;
65009;SDS011;51556;50.002;22.014;2022-08-18T17:30:27;10.20;;;5.70;;